sensor_id;sensor_type;location;lat;lon;timestamp;P1;durP1;ratioP1;P2;durP2;ratioP2
15936;SDS011;9163;48.818;8.976;2023-05-23T00:01:15;47.67;;;30.03;;
15936;SDS011;9163;48.818;8.976;2023-05-23T00:03:42;49.83;;;30.50;;
15936;SDS011;9163;48.818;8.976;2023-05-23T00:06:11;55.77;;;32.33;;
15936;SDS011;9163;48.818;8.976;2023-05-23T00:08:39;58.00;;;33.60;;
15936;SDS011;9163;48.818;8.976;2023-05-23T00:11:06;57.30;;;34.13;;
15936;SDS011;9163;48.818;8.976;2023-05-23T00:13:33;55.83;;;34.33;;
15936;SDS011;9163;48.818;8.976;2023-05-23T00:16:02;57.20;;;34.33;;
15936;SDS011;9163;48.818;8.976;2023-05-23T00:18:29;53.80;;;31.90;;
15936;SDS011;9163;48.818;8.976;2023-05-23T00:20:56;63.73;;;35.50;;
15936;SDS011;9163;48.818;8.976;2023-05-23T00:23:24;59.50;;;35.13;;
15936;SDS011;9163;48.818;8.976;2023-05-23T00:25:54;62.20;;;34.73;;
15936;SDS011;9163;48.818;8.976;2023-05-23T00:28:22;68.43;;;37.87;;
15936;SDS011;9163;48.818;8.976;2023-05-23T00:30:50;70.50;;;38.17;;
15936;SDS011;9163;48.818;8.976;2023-05-23T00:33:19;74.47;;;38.63;;
15936;SDS011;9163;48.818;8.976;2023-05-23T00:35:46;73.53;;;38.70;;
15936;SDS011;9163;48.818;8.976;2023-05-23T00:38:13;77.70;;;42.00;;
15936;SDS011;9163;48.818;8.976;2023-05-23T00:40:41;72.43;;;41.67;;
15936;SDS011;9163;48.818;8.976;2023-05-23T00:43:09;78.27;;;40.93;;
15936;SDS011;9163;48.818;8.976;2023-05-23T00:45:36;75.00;;;41.07;;
15936;SDS011;9163;48.818;8.976;2023-05-23T00:48:04;69.33;;;40.70;;
15936;SDS011;9163;48.818;8.976;2023-05-23T00:50:33;80.17;;;42.33;;
15936;SDS011;9163;48.818;8.976;2023-05-23T00:53:01;79.83;;;42.13;;
15936;SDS011;9163;48.818;8.976;2023-05-23T00:55:28;74.80;;;40.97;;
15936;SDS011;9163;48.818;8.976;2023-05-23T00:57:56;78.97;;;43.27;;
15936;SDS011;9163;48.818;8.976;2023-05-23T01:00:24;77.10;;;42.03;;
15936;SDS011;9163;48.818;8.976;2023-05-23T01:02:52;80.03;;;42.97;;
15936;SDS011;9163;48.818;8.976;2023-05-23T01:05:19;84.63;;;44.67;;
15936;SDS011;9163;48.818;8.976;2023-05-23T01:07:50;86.43;;;45.33;;
15936;SDS011;9163;48.818;8.976;2023-05-23T01:10:18;83.60;;;45.40;;
15936;SDS011;9163;48.818;8.976;2023-05-23T01:12:52;88.57;;;47.87;;
15936;SDS011;9163;48.818;8.976;2023-05-23T01:15:37;80.73;;;45.17;;
15936;SDS011;9163;48.818;8.976;2023-05-23T01:18:11;89.07;;;46.57;;
15936;SDS011;9163;48.818;8.976;2023-05-23T01:20:42;88.23;;;48.20;;
15936;SDS011;9163;48.818;8.976;2023-05-23T01:26:23;92.80;;;47.43;;
15936;SDS011;9163;48.818;8.976;2023-05-23T01:29:02;99.30;;;49.57;;
15936;SDS011;9163;48.818;8.976;2023-05-23T01:31:35;98.50;;;50.73;;
15936;SDS011;9163;48.818;8.976;2023-05-23T01:34:04;89.27;;;49.70;;
15936;SDS011;9163;48.818;8.976;2023-05-23T01:36:33;87.67;;;49.13;;
15936;SDS011;9163;48.818;8.976;2023-05-23T01:39:01;98.17;;;52.33;;
15936;SDS011;9163;48.818;8.976;2023-05-23T01:41:28;92.70;;;49.90;;
15936;SDS011;9163;48.818;8.976;2023-05-23T01:43:55;92.37;;;49.43;;
15936;SDS011;9163;48.818;8.976;2023-05-23T01:46:24;96.67;;;51.70;;
15936;SDS011;9163;48.818;8.976;2023-05-23T01:48:53;97.53;;;50.10;;
15936;SDS011;9163;48.818;8.976;2023-05-23T01:51:21;90.73;;;49.93;;
15936;SDS011;9163;48.818;8.976;2023-05-23T01:53:49;89.77;;;50.07;;
15936;SDS011;9163;48.818;8.976;2023-05-23T01:56:17;86.20;;;49.13;;
15936;SDS011;9163;48.818;8.976;2023-05-23T01:58:46;95.37;;;51.97;;
15936;SDS011;9163;48.818;8.976;2023-05-23T02:01:13;92.93;;;51.10;;
15936;SDS011;9163;48.818;8.976;2023-05-23T02:03:42;95.13;;;51.43;;
15936;SDS011;9163;48.818;8.976;2023-05-23T02:06:09;87.40;;;50.67;;
15936;SDS011;9163;48.818;8.976;2023-05-23T02:08:36;90.20;;;50.20;;
15936;SDS011;9163;48.818;8.976;2023-05-23T02:11:04;91.90;;;50.27;;
15936;SDS011;9163;48.818;8.976;2023-05-23T02:13:33;92.70;;;51.40;;
15936;SDS011;9163;48.818;8.976;2023-05-23T02:16:00;89.10;;;51.20;;
15936;SDS011;9163;48.818;8.976;2023-05-23T02:18:28;89.50;;;50.97;;
15936;SDS011;9163;48.818;8.976;2023-05-23T02:20:57;83.67;;;48.10;;
15936;SDS011;9163;48.818;8.976;2023-05-23T02:23:24;85.00;;;49.23;;
15936;SDS011;9163;48.818;8.976;2023-05-23T02:25:51;86.80;;;50.40;;
15936;SDS011;9163;48.818;8.976;2023-05-23T02:28:18;88.03;;;50.53;;
15936;SDS011;9163;48.818;8.976;2023-05-23T02:30:45;88.87;;;48.97;;
15936;SDS011;9163;48.818;8.976;2023-05-23T02:33:13;86.43;;;49.80;;
15936;SDS011;9163;48.818;8.976;2023-05-23T02:35:41;87.13;;;49.63;;
15936;SDS011;9163;48.818;8.976;2023-05-23T02:38:09;89.47;;;51.13;;
15936;SDS011;9163;48.818;8.976;2023-05-23T02:40:36;86.93;;;51.30;;
15936;SDS011;9163;48.818;8.976;2023-05-23T02:43:04;94.97;;;51.30;;
15936;SDS011;9163;48.818;8.976;2023-05-23T02:45:31;86.33;;;50.50;;
15936;SDS011;9163;48.818;8.976;2023-05-23T02:47:58;77.90;;;46.90;;
15936;SDS011;9163;48.818;8.976;2023-05-23T02:50:25;78.97;;;47.27;;
15936;SDS011;9163;48.818;8.976;2023-05-23T02:52:52;84.00;;;49.30;;
15936;SDS011;9163;48.818;8.976;2023-05-23T02:55:21;82.77;;;47.93;;
15936;SDS011;9163;48.818;8.976;2023-05-23T02:57:48;80.43;;;46.33;;
15936;SDS011;9163;48.818;8.976;2023-05-23T03:00:16;73.27;;;45.73;;
15936;SDS011;9163;48.818;8.976;2023-05-23T03:02:43;73.80;;;45.83;;
15936;SDS011;9163;48.818;8.976;2023-05-23T03:05:10;71.23;;;43.50;;
15936;SDS011;9163;48.818;8.976;2023-05-23T03:07:38;70.23;;;43.03;;
15936;SDS011;9163;48.818;8.976;2023-05-23T03:10:05;79.60;;;45.97;;
15936;SDS011;9163;48.818;8.976;2023-05-23T03:12:35;71.83;;;44.07;;
15936;SDS011;9163;48.818;8.976;2023-05-23T03:15:02;67.43;;;42.57;;
15936;SDS011;9163;48.818;8.976;2023-05-23T03:17:30;74.27;;;43.93;;
15936;SDS011;9163;48.818;8.976;2023-05-23T03:19:57;67.53;;;43.60;;
15936;SDS011;9163;48.818;8.976;2023-05-23T03:22:24;71.97;;;44.87;;
15936;SDS011;9163;48.818;8.976;2023-05-23T03:24:52;71.43;;;44.87;;
15936;SDS011;9163;48.818;8.976;2023-05-23T03:27:19;71.30;;;45.40;;
15936;SDS011;9163;48.818;8.976;2023-05-23T03:29:47;68.63;;;43.13;;
15936;SDS011;9163;48.818;8.976;2023-05-23T03:32:15;64.70;;;43.20;;
15936;SDS011;9163;48.818;8.976;2023-05-23T03:34:42;67.10;;;42.20;;
15936;SDS011;9163;48.818;8.976;2023-05-23T03:37:10;72.33;;;43.17;;
15936;SDS011;9163;48.818;8.976;2023-05-23T03:39:37;70.67;;;43.57;;
15936;SDS011;9163;48.818;8.976;2023-05-23T03:42:04;68.47;;;44.37;;
15936;SDS011;9163;48.818;8.976;2023-05-23T03:44:32;69.70;;;43.30;;
15936;SDS011;9163;48.818;8.976;2023-05-23T03:47:00;66.17;;;41.33;;
15936;SDS011;9163;48.818;8.976;2023-05-23T03:49:28;64.17;;;42.07;;
15936;SDS011;9163;48.818;8.976;2023-05-23T03:51:55;61.67;;;41.07;;
15936;SDS011;9163;48.818;8.976;2023-05-23T03:54:22;62.00;;;41.67;;
15936;SDS011;9163;48.818;8.976;2023-05-23T03:56:49;61.63;;;41.20;;
15936;SDS011;9163;48.818;8.976;2023-05-23T03:59:17;67.07;;;44.10;;
15936;SDS011;9163;48.818;8.976;2023-05-23T04:01:44;65.87;;;42.47;;
15936;SDS011;9163;48.818;8.976;2023-05-23T04:04:12;62.43;;;42.97;;
15936;SDS011;9163;48.818;8.976;2023-05-23T04:06:41;60.93;;;42.20;;
15936;SDS011;9163;48.818;8.976;2023-05-23T04:09:08;62.73;;;41.33;;
15936;SDS011;9163;48.818;8.976;2023-05-23T04:11:36;64.43;;;42.87;;
15936;SDS011;9163;48.818;8.976;2023-05-23T04:14:03;70.93;;;43.93;;
15936;SDS011;9163;48.818;8.976;2023-05-23T04:16:30;58.10;;;39.67;;
15936;SDS011;9163;48.818;8.976;2023-05-23T04:18:57;63.50;;;42.63;;
15936;SDS011;9163;48.818;8.976;2023-05-23T04:21:28;60.33;;;42.17;;
15936;SDS011;9163;48.818;8.976;2023-05-23T04:23:55;61.43;;;43.03;;
15936;SDS011;9163;48.818;8.976;2023-05-23T04:26:22;63.03;;;42.20;;
15936;SDS011;9163;48.818;8.976;2023-05-23T04:28:50;61.07;;;40.90;;
15936;SDS011;9163;48.818;8.976;2023-05-23T04:31:18;62.07;;;43.80;;
15936;SDS011;9163;48.818;8.976;2023-05-23T04:33:46;64.33;;;43.60;;
15936;SDS011;9163;48.818;8.976;2023-05-23T04:36:14;63.50;;;42.67;;
15936;SDS011;9163;48.818;8.976;2023-05-23T04:38:42;62.23;;;43.00;;
15936;SDS011;9163;48.818;8.976;2023-05-23T04:41:10;61.83;;;43.50;;
15936;SDS011;9163;48.818;8.976;2023-05-23T04:43:37;60.67;;;42.40;;
15936;SDS011;9163;48.818;8.976;2023-05-23T04:46:07;59.73;;;42.77;;
15936;SDS011;9163;48.818;8.976;2023-05-23T04:48:34;60.57;;;42.20;;
15936;SDS011;9163;48.818;8.976;2023-05-23T04:51:03;60.87;;;43.47;;
15936;SDS011;9163;48.818;8.976;2023-05-23T04:53:32;63.13;;;44.73;;
15936;SDS011;9163;48.818;8.976;2023-05-23T04:56:02;65.20;;;44.70;;
15936;SDS011;9163;48.818;8.976;2023-05-23T04:58:29;68.53;;;46.23;;
15936;SDS011;9163;48.818;8.976;2023-05-23T05:00:57;66.63;;;45.17;;
15936;SDS011;9163;48.818;8.976;2023-05-23T05:03:25;62.47;;;45.00;;
15936;SDS011;9163;48.818;8.976;2023-05-23T05:05:52;60.83;;;44.57;;
15936;SDS011;9163;48.818;8.976;2023-05-23T05:08:19;62.80;;;44.90;;
15936;SDS011;9163;48.818;8.976;2023-05-23T05:10:46;71.67;;;51.27;;
15936;SDS011;9163;48.818;8.976;2023-05-23T05:13:15;62.20;;;44.43;;
15936;SDS011;9163;48.818;8.976;2023-05-23T05:15:42;58.10;;;42.17;;
15936;SDS011;9163;48.818;8.976;2023-05-23T05:18:09;66.83;;;45.93;;
15936;SDS011;9163;48.818;8.976;2023-05-23T05:20:37;65.60;;;46.07;;
15936;SDS011;9163;48.818;8.976;2023-05-23T05:23:05;60.43;;;45.30;;
15936;SDS011;9163;48.818;8.976;2023-05-23T05:25:34;59.30;;;42.70;;
15936;SDS011;9163;48.818;8.976;2023-05-23T05:28:02;64.33;;;45.97;;
15936;SDS011;9163;48.818;8.976;2023-05-23T05:30:31;62.97;;;45.03;;
15936;SDS011;9163;48.818;8.976;2023-05-23T05:32:59;64.67;;;45.47;;
15936;SDS011;9163;48.818;8.976;2023-05-23T05:35:27;66.70;;;47.77;;
15936;SDS011;9163;48.818;8.976;2023-05-23T05:37:54;61.07;;;42.07;;
15936;SDS011;9163;48.818;8.976;2023-05-23T05:40:21;67.33;;;46.57;;
15936;SDS011;9163;48.818;8.976;2023-05-23T05:42:48;60.97;;;43.90;;
15936;SDS011;9163;48.818;8.976;2023-05-23T05:45:15;60.10;;;43.67;;
15936;SDS011;9163;48.818;8.976;2023-05-23T05:47:44;55.53;;;41.47;;
15936;SDS011;9163;48.818;8.976;2023-05-23T05:50:12;57.63;;;42.33;;
15936;SDS011;9163;48.818;8.976;2023-05-23T05:52:39;52.80;;;39.83;;
15936;SDS011;9163;48.818;8.976;2023-05-23T05:55:08;51.83;;;39.70;;
15936;SDS011;9163;48.818;8.976;2023-05-23T05:57:36;51.50;;;39.50;;
15936;SDS011;9163;48.818;8.976;2023-05-23T06:00:05;49.17;;;35.80;;
15936;SDS011;9163;48.818;8.976;2023-05-23T06:02:37;52.30;;;38.33;;
15936;SDS011;9163;48.818;8.976;2023-05-23T06:05:06;49.07;;;37.67;;
15936;SDS011;9163;48.818;8.976;2023-05-23T06:07:36;49.17;;;37.13;;
15936;SDS011;9163;48.818;8.976;2023-05-23T06:10:04;52.10;;;37.70;;
15936;SDS011;9163;48.818;8.976;2023-05-23T06:12:33;45.77;;;35.30;;
15936;SDS011;9163;48.818;8.976;2023-05-23T06:15:00;46.27;;;33.67;;
15936;SDS011;9163;48.818;8.976;2023-05-23T06:17:27;43.17;;;32.27;;
15936;SDS011;9163;48.818;8.976;2023-05-23T06:19:55;44.80;;;34.70;;
15936;SDS011;9163;48.818;8.976;2023-05-23T06:22:23;45.13;;;34.10;;
15936;SDS011;9163;48.818;8.976;2023-05-23T06:24:50;43.93;;;33.67;;
15936;SDS011;9163;48.818;8.976;2023-05-23T06:27:18;41.53;;;32.83;;
15936;SDS011;9163;48.818;8.976;2023-05-23T06:29:45;41.17;;;31.77;;
15936;SDS011;9163;48.818;8.976;2023-05-23T06:32:12;43.20;;;33.57;;
15936;SDS011;9163;48.818;8.976;2023-05-23T06:34:39;43.47;;;34.13;;
15936;SDS011;9163;48.818;8.976;2023-05-23T06:37:06;43.97;;;33.90;;
15936;SDS011;9163;48.818;8.976;2023-05-23T06:39:35;42.77;;;34.20;;
15936;SDS011;9163;48.818;8.976;2023-05-23T06:42:02;43.67;;;33.57;;
15936;SDS011;9163;48.818;8.976;2023-05-23T06:44:30;41.30;;;31.93;;
15936;SDS011;9163;48.818;8.976;2023-05-23T06:46:57;38.90;;;31.10;;
15936;SDS011;9163;48.818;8.976;2023-05-23T06:49:24;41.13;;;32.13;;
15936;SDS011;9163;48.818;8.976;2023-05-23T06:51:52;39.30;;;31.00;;
15936;SDS011;9163;48.818;8.976;2023-05-23T06:54:19;39.57;;;31.47;;
15936;SDS011;9163;48.818;8.976;2023-05-23T06:56:48;38.67;;;31.57;;
15936;SDS011;9163;48.818;8.976;2023-05-23T06:59:15;44.00;;;30.70;;
15936;SDS011;9163;48.818;8.976;2023-05-23T07:01:42;37.30;;;30.20;;
15936;SDS011;9163;48.818;8.976;2023-05-23T07:04:10;39.53;;;31.17;;
15936;SDS011;9163;48.818;8.976;2023-05-23T07:06:37;42.67;;;33.00;;
15936;SDS011;9163;48.818;8.976;2023-05-23T07:09:05;43.23;;;33.60;;
15936;SDS011;9163;48.818;8.976;2023-05-23T07:11:32;45.80;;;33.83;;
15936;SDS011;9163;48.818;8.976;2023-05-23T07:14:02;43.17;;;35.00;;
15936;SDS011;9163;48.818;8.976;2023-05-23T07:16:29;42.03;;;34.53;;
15936;SDS011;9163;48.818;8.976;2023-05-23T07:18:56;45.53;;;34.20;;
15936;SDS011;9163;48.818;8.976;2023-05-23T07:21:23;45.47;;;35.17;;
15936;SDS011;9163;48.818;8.976;2023-05-23T07:23:50;42.80;;;33.43;;
15936;SDS011;9163;48.818;8.976;2023-05-23T07:26:17;46.47;;;35.33;;
15936;SDS011;9163;48.818;8.976;2023-05-23T07:28:45;44.40;;;33.57;;
15936;SDS011;9163;48.818;8.976;2023-05-23T07:31:13;45.23;;;33.67;;
15936;SDS011;9163;48.818;8.976;2023-05-23T07:33:41;40.10;;;31.97;;
15936;SDS011;9163;48.818;8.976;2023-05-23T07:36:09;40.53;;;31.03;;
15936;SDS011;9163;48.818;8.976;2023-05-23T07:38:36;40.40;;;31.97;;
15936;SDS011;9163;48.818;8.976;2023-05-23T07:41:03;40.50;;;31.50;;
15936;SDS011;9163;48.818;8.976;2023-05-23T07:43:30;41.67;;;30.63;;
15936;SDS011;9163;48.818;8.976;2023-05-23T07:45:58;40.30;;;30.63;;
15936;SDS011;9163;48.818;8.976;2023-05-23T07:48:26;36.60;;;28.60;;
15936;SDS011;9163;48.818;8.976;2023-05-23T07:50:53;32.47;;;26.77;;
15936;SDS011;9163;48.818;8.976;2023-05-23T07:53:21;35.37;;;28.20;;
15936;SDS011;9163;48.818;8.976;2023-05-23T07:55:48;34.80;;;27.30;;
15936;SDS011;9163;48.818;8.976;2023-05-23T07:58:15;32.10;;;24.90;;
15936;SDS011;9163;48.818;8.976;2023-05-23T08:00:43;32.07;;;26.83;;
15936;SDS011;9163;48.818;8.976;2023-05-23T08:03:10;32.87;;;25.53;;
15936;SDS011;9163;48.818;8.976;2023-05-23T08:05:39;33.43;;;26.30;;
15936;SDS011;9163;48.818;8.976;2023-05-23T08:08:06;34.40;;;25.50;;
15936;SDS011;9163;48.818;8.976;2023-05-23T08:10:33;32.50;;;25.43;;
15936;SDS011;9163;48.818;8.976;2023-05-23T08:13:01;32.00;;;25.07;;
15936;SDS011;9163;48.818;8.976;2023-05-23T08:15:31;30.90;;;26.13;;
15936;SDS011;9163;48.818;8.976;2023-05-23T08:17:58;31.07;;;25.03;;
15936;SDS011;9163;48.818;8.976;2023-05-23T08:20:25;31.10;;;25.37;;
15936;SDS011;9163;48.818;8.976;2023-05-23T08:22:58;31.43;;;24.57;;
15936;SDS011;9163;48.818;8.976;2023-05-23T08:25:26;29.80;;;23.83;;
15936;SDS011;9163;48.818;8.976;2023-05-23T08:27:55;31.47;;;24.27;;
15936;SDS011;9163;48.818;8.976;2023-05-23T08:30:23;28.33;;;22.90;;
15936;SDS011;9163;48.818;8.976;2023-05-23T08:32:50;26.50;;;21.77;;
15936;SDS011;9163;48.818;8.976;2023-05-23T08:35:19;28.73;;;21.87;;
15936;SDS011;9163;48.818;8.976;2023-05-23T08:37:47;24.63;;;20.77;;
15936;SDS011;9163;48.818;8.976;2023-05-23T08:40:19;25.63;;;21.53;;
15936;SDS011;9163;48.818;8.976;2023-05-23T08:42:47;27.30;;;20.80;;
15936;SDS011;9163;48.818;8.976;2023-05-23T08:45:15;27.37;;;21.83;;
15936;SDS011;9163;48.818;8.976;2023-05-23T08:47:43;24.20;;;21.33;;
15936;SDS011;9163;48.818;8.976;2023-05-23T08:50:11;24.57;;;20.83;;
15936;SDS011;9163;48.818;8.976;2023-05-23T08:52:42;24.23;;;20.37;;
15936;SDS011;9163;48.818;8.976;2023-05-23T08:55:13;25.40;;;21.03;;
15936;SDS011;9163;48.818;8.976;2023-05-23T08:57:43;24.70;;;20.73;;
15936;SDS011;9163;48.818;8.976;2023-05-23T09:00:11;21.43;;;18.50;;
15936;SDS011;9163;48.818;8.976;2023-05-23T09:02:42;21.97;;;18.10;;
15936;SDS011;9163;48.818;8.976;2023-05-23T09:05:09;22.03;;;18.40;;
15936;SDS011;9163;48.818;8.976;2023-05-23T09:07:37;21.17;;;17.90;;
15936;SDS011;9163;48.818;8.976;2023-05-23T09:10:05;18.40;;;16.40;;
15936;SDS011;9163;48.818;8.976;2023-05-23T09:12:34;19.47;;;16.40;;
15936;SDS011;9163;48.818;8.976;2023-05-23T09:15:03;20.20;;;16.23;;
15936;SDS011;9163;48.818;8.976;2023-05-23T09:17:32;16.07;;;13.33;;
15936;SDS011;9163;48.818;8.976;2023-05-23T09:19:59;18.07;;;14.97;;
15936;SDS011;9163;48.818;8.976;2023-05-23T09:22:26;18.40;;;14.30;;
15936;SDS011;9163;48.818;8.976;2023-05-23T09:24:54;15.20;;;13.30;;
15936;SDS011;9163;48.818;8.976;2023-05-23T09:27:22;15.47;;;12.90;;
15936;SDS011;9163;48.818;8.976;2023-05-23T09:29:50;14.13;;;11.63;;
15936;SDS011;9163;48.818;8.976;2023-05-23T09:32:19;12.17;;;10.87;;
15936;SDS011;9163;48.818;8.976;2023-05-23T09:34:53;13.03;;;11.00;;
15936;SDS011;9163;48.818;8.976;2023-05-23T09:37:21;11.97;;;10.63;;
15936;SDS011;9163;48.818;8.976;2023-05-23T09:39:51;16.87;;;10.27;;
15936;SDS011;9163;48.818;8.976;2023-05-23T09:42:19;12.63;;;10.60;;
15936;SDS011;9163;48.818;8.976;2023-05-23T09:44:47;12.33;;;11.03;;
15936;SDS011;9163;48.818;8.976;2023-05-23T09:47:15;12.43;;;10.53;;
15936;SDS011;9163;48.818;8.976;2023-05-23T09:49:44;12.27;;;10.70;;
15936;SDS011;9163;48.818;8.976;2023-05-23T09:52:12;12.63;;;11.27;;
15936;SDS011;9163;48.818;8.976;2023-05-23T09:54:39;14.90;;;10.17;;
15936;SDS011;9163;48.818;8.976;2023-05-23T09:57:08;18.10;;;10.80;;
15936;SDS011;9163;48.818;8.976;2023-05-23T09:59:37;13.80;;;10.33;;
15936;SDS011;9163;48.818;8.976;2023-05-23T10:02:06;15.47;;;10.57;;
15936;SDS011;9163;48.818;8.976;2023-05-23T10:04:37;11.80;;;8.97;;
15936;SDS011;9163;48.818;8.976;2023-05-23T10:07:09;12.50;;;9.30;;
15936;SDS011;9163;48.818;8.976;2023-05-23T10:09:44;9.90;;;8.90;;
15936;SDS011;9163;48.818;8.976;2023-05-23T10:15:14;10.37;;;9.30;;
15936;SDS011;9163;48.818;8.976;2023-05-23T10:17:56;9.63;;;8.60;;
15936;SDS011;9163;48.818;8.976;2023-05-23T10:20:30;10.20;;;8.90;;
15936;SDS011;9163;48.818;8.976;2023-05-23T10:22:59;9.43;;;8.43;;
15936;SDS011;9163;48.818;8.976;2023-05-23T10:25:29;10.43;;;8.93;;
15936;SDS011;9163;48.818;8.976;2023-05-23T10:27:57;14.70;;;10.30;;
15936;SDS011;9163;48.818;8.976;2023-05-23T10:30:26;11.20;;;10.00;;
15936;SDS011;9163;48.818;8.976;2023-05-23T10:32:54;11.17;;;9.93;;
15936;SDS011;9163;48.818;8.976;2023-05-23T10:35:24;10.63;;;9.53;;
15936;SDS011;9163;48.818;8.976;2023-05-23T10:38:06;10.70;;;9.70;;
15936;SDS011;9163;48.818;8.976;2023-05-23T10:40:42;12.00;;;10.13;;
15936;SDS011;9163;48.818;8.976;2023-05-23T10:43:16;13.23;;;10.57;;
15936;SDS011;9163;48.818;8.976;2023-05-23T10:45:48;12.00;;;10.73;;
15936;SDS011;9163;48.818;8.976;2023-05-23T10:48:19;11.67;;;10.20;;
15936;SDS011;9163;48.818;8.976;2023-05-23T10:53:33;12.57;;;11.00;;
15936;SDS011;9163;48.818;8.976;2023-05-23T10:56:03;12.10;;;10.17;;
15936;SDS011;9163;48.818;8.976;2023-05-23T10:58:31;14.07;;;11.10;;
15936;SDS011;9163;48.818;8.976;2023-05-23T11:00:59;13.00;;;10.70;;
15936;SDS011;9163;48.818;8.976;2023-05-23T11:03:34;11.00;;;9.90;;
15936;SDS011;9163;48.818;8.976;2023-05-23T11:06:02;11.83;;;10.63;;
15936;SDS011;9163;48.818;8.976;2023-05-23T11:08:38;12.13;;;10.53;;
15936;SDS011;9163;48.818;8.976;2023-05-23T11:11:10;11.13;;;10.03;;
15936;SDS011;9163;48.818;8.976;2023-05-23T11:13:53;12.20;;;10.90;;
15936;SDS011;9163;48.818;8.976;2023-05-23T11:16:28;13.10;;;11.70;;
15936;SDS011;9163;48.818;8.976;2023-05-23T11:21:53;13.47;;;11.97;;
15936;SDS011;9163;48.818;8.976;2023-05-23T11:24:46;13.23;;;11.43;;
15936;SDS011;9163;48.818;8.976;2023-05-23T11:27:17;12.70;;;11.23;;
15936;SDS011;9163;48.818;8.976;2023-05-23T11:29:56;12.53;;;11.23;;
15936;SDS011;9163;48.818;8.976;2023-05-23T11:32:28;12.50;;;10.53;;
15936;SDS011;9163;48.818;8.976;2023-05-23T11:34:59;11.30;;;10.10;;
15936;SDS011;9163;48.818;8.976;2023-05-23T11:37:27;11.90;;;10.07;;
15936;SDS011;9163;48.818;8.976;2023-05-23T11:39:56;10.97;;;9.63;;
15936;SDS011;9163;48.818;8.976;2023-05-23T11:42:24;12.33;;;10.40;;
15936;SDS011;9163;48.818;8.976;2023-05-23T11:44:51;13.57;;;10.80;;
15936;SDS011;9163;48.818;8.976;2023-05-23T11:47:19;12.33;;;11.03;;
15936;SDS011;9163;48.818;8.976;2023-05-23T11:49:46;10.93;;;9.90;;
15936;SDS011;9163;48.818;8.976;2023-05-23T11:52:14;11.37;;;10.27;;
15936;SDS011;9163;48.818;8.976;2023-05-23T11:54:41;11.53;;;9.93;;
15936;SDS011;9163;48.818;8.976;2023-05-23T11:57:10;10.40;;;8.80;;
15936;SDS011;9163;48.818;8.976;2023-05-23T11:59:39;9.30;;;8.30;;
15936;SDS011;9163;48.818;8.976;2023-05-23T12:02:06;9.90;;;7.97;;
15936;SDS011;9163;48.818;8.976;2023-05-23T12:04:34;9.63;;;8.40;;
15936;SDS011;9163;48.818;8.976;2023-05-23T12:07:03;8.87;;;7.90;;
15936;SDS011;9163;48.818;8.976;2023-05-23T12:09:33;8.60;;;7.27;;
15936;SDS011;9163;48.818;8.976;2023-05-23T12:12:07;8.23;;;6.40;;
15936;SDS011;9163;48.818;8.976;2023-05-23T12:14:37;6.47;;;5.87;;
15936;SDS011;9163;48.818;8.976;2023-05-23T12:17:09;6.77;;;6.07;;
15936;SDS011;9163;48.818;8.976;2023-05-23T12:19:37;6.57;;;5.97;;
15936;SDS011;9163;48.818;8.976;2023-05-23T12:22:05;7.17;;;6.47;;
15936;SDS011;9163;48.818;8.976;2023-05-23T12:24:33;7.40;;;6.47;;
15936;SDS011;9163;48.818;8.976;2023-05-23T12:27:01;7.10;;;6.40;;
15936;SDS011;9163;48.818;8.976;2023-05-23T12:29:31;7.67;;;6.87;;
15936;SDS011;9163;48.818;8.976;2023-05-23T12:31:59;7.50;;;6.60;;
15936;SDS011;9163;48.818;8.976;2023-05-23T12:34:28;6.10;;;5.50;;
15936;SDS011;9163;48.818;8.976;2023-05-23T12:36:55;5.77;;;5.27;;
15936;SDS011;9163;48.818;8.976;2023-05-23T12:39:24;5.40;;;4.90;;
15936;SDS011;9163;48.818;8.976;2023-05-23T12:41:52;5.70;;;5.10;;
15936;SDS011;9163;48.818;8.976;2023-05-23T12:44:22;5.53;;;4.77;;
15936;SDS011;9163;48.818;8.976;2023-05-23T12:46:57;5.65;;;4.60;;
15936;SDS011;9163;48.818;8.976;2023-05-23T12:49:24;4.80;;;4.40;;
15936;SDS011;9163;48.818;8.976;2023-05-23T12:51:51;5.30;;;4.80;;
15936;SDS011;9163;48.818;8.976;2023-05-23T12:54:18;6.55;;;5.72;;
15936;SDS011;9163;48.818;8.976;2023-05-23T12:56:46;5.95;;;5.35;;
15936;SDS011;9163;48.818;8.976;2023-05-23T12:59:13;5.45;;;4.95;;
15936;SDS011;9163;48.818;8.976;2023-05-23T13:01:40;4.78;;;4.38;;
15936;SDS011;9163;48.818;8.976;2023-05-23T13:04:09;6.68;;;4.68;;
15936;SDS011;9163;48.818;8.976;2023-05-23T13:06:36;5.05;;;4.55;;
15936;SDS011;9163;48.818;8.976;2023-05-23T13:09:03;5.85;;;4.40;;
15936;SDS011;9163;48.818;8.976;2023-05-23T13:11:30;5.15;;;4.60;;
15936;SDS011;9163;48.818;8.976;2023-05-23T13:13:58;5.32;;;4.82;;
15936;SDS011;9163;48.818;8.976;2023-05-23T13:16:25;5.80;;;4.50;;
15936;SDS011;9163;48.818;8.976;2023-05-23T13:18:52;5.80;;;4.93;;
15936;SDS011;9163;48.818;8.976;2023-05-23T13:21:21;5.80;;;4.63;;
15936;SDS011;9163;48.818;8.976;2023-05-23T13:23:48;4.30;;;3.77;;
15936;SDS011;9163;48.818;8.976;2023-05-23T13:26:15;4.90;;;4.40;;
15936;SDS011;9163;48.818;8.976;2023-05-23T13:28:43;6.63;;;4.70;;
15936;SDS011;9163;48.818;8.976;2023-05-23T13:31:10;4.87;;;4.03;;
15936;SDS011;9163;48.818;8.976;2023-05-23T13:33:37;6.43;;;4.30;;
15936;SDS011;9163;48.818;8.976;2023-05-23T13:36:05;5.20;;;4.43;;
15936;SDS011;9163;48.818;8.976;2023-05-23T13:38:34;5.00;;;4.50;;
15936;SDS011;9163;48.818;8.976;2023-05-23T13:41:01;5.70;;;4.00;;
15936;SDS011;9163;48.818;8.976;2023-05-23T13:43:28;5.30;;;3.97;;
15936;SDS011;9163;48.818;8.976;2023-05-23T13:45:55;5.33;;;4.10;;
15936;SDS011;9163;48.818;8.976;2023-05-23T13:48:23;5.97;;;4.40;;
15936;SDS011;9163;48.818;8.976;2023-05-23T13:50:50;7.03;;;4.50;;
15936;SDS011;9163;48.818;8.976;2023-05-23T13:53:17;6.00;;;4.37;;
15936;SDS011;9163;48.818;8.976;2023-05-23T13:55:47;4.60;;;4.20;;
15936;SDS011;9163;48.818;8.976;2023-05-23T13:58:14;6.10;;;3.80;;
15936;SDS011;9163;48.818;8.976;2023-05-23T14:00:41;4.10;;;3.70;;
15936;SDS011;9163;48.818;8.976;2023-05-23T14:03:08;3.60;;;3.30;;
15936;SDS011;9163;48.818;8.976;2023-05-23T14:05:36;4.63;;;3.83;;
15936;SDS011;9163;48.818;8.976;2023-05-23T14:08:03;4.50;;;4.00;;
15936;SDS011;9163;48.818;8.976;2023-05-23T14:10:31;5.17;;;4.10;;
15936;SDS011;9163;48.818;8.976;2023-05-23T14:13:00;4.83;;;3.90;;
15936;SDS011;9163;48.818;8.976;2023-05-23T14:15:27;4.30;;;3.90;;
15936;SDS011;9163;48.818;8.976;2023-05-23T14:17:54;4.97;;;3.73;;
15936;SDS011;9163;48.818;8.976;2023-05-23T14:20:21;5.50;;;4.67;;
15936;SDS011;9163;48.818;8.976;2023-05-23T14:22:49;4.37;;;3.97;;
15936;SDS011;9163;48.818;8.976;2023-05-23T14:25:17;4.40;;;3.63;;
15936;SDS011;9163;48.818;8.976;2023-05-23T14:27:44;4.63;;;4.13;;
15936;SDS011;9163;48.818;8.976;2023-05-23T14:30:13;4.03;;;3.63;;
15936;SDS011;9163;48.818;8.976;2023-05-23T14:32:40;4.13;;;3.80;;
15936;SDS011;9163;48.818;8.976;2023-05-23T14:35:08;4.93;;;3.87;;
15936;SDS011;9163;48.818;8.976;2023-05-23T14:37:36;4.30;;;3.90;;
15936;SDS011;9163;48.818;8.976;2023-05-23T14:40:04;4.47;;;4.00;;
15936;SDS011;9163;48.818;8.976;2023-05-23T14:42:32;5.07;;;4.40;;
15936;SDS011;9163;48.818;8.976;2023-05-23T14:44:59;5.33;;;4.30;;
15936;SDS011;9163;48.818;8.976;2023-05-23T14:47:28;5.73;;;3.97;;
15936;SDS011;9163;48.818;8.976;2023-05-23T14:49:56;5.27;;;4.77;;
15936;SDS011;9163;48.818;8.976;2023-05-23T14:52:23;4.70;;;3.80;;
15936;SDS011;9163;48.818;8.976;2023-05-23T14:54:51;4.40;;;4.00;;
15936;SDS011;9163;48.818;8.976;2023-05-23T14:57:18;4.20;;;3.80;;
15936;SDS011;9163;48.818;8.976;2023-05-23T14:59:45;3.72;;;3.33;;